createdAt,value
2019-01-24T00:02:27.152Z,67.93
2019-01-24T00:04:57.899Z,66.07
2019-01-24T00:07:28.891Z,57.60
2019-01-24T00:09:58.605Z,71.13
2019-01-24T00:12:29.751Z,69.50
2019-01-24T00:14:59.307Z,64.77
2019-01-24T00:17:29.270Z,65.63
2019-01-24T00:19:59.067Z,73.17
2019-01-24T00:22:28.809Z,74.57
2019-01-24T00:24:58.477Z,68.67
2019-01-24T00:27:30.680Z,64.97
2019-01-24T00:30:00.397Z,77.10
2019-01-24T00:32:30.168Z,66.70
2019-01-24T00:35:03.313Z,66.20
2019-01-24T00:37:34.823Z,65.53
2019-01-24T00:40:06.039Z,70.73
2019-01-24T00:42:35.865Z,73.43
2019-01-24T00:45:06.908Z,70.10
2019-01-24T00:47:39.446Z,74.10
2019-01-24T00:50:10.119Z,67.40
2019-01-24T00:52:42.549Z,64.73
2019-01-24T00:55:13.747Z,72.80
2019-01-24T00:57:43.818Z,61.13
2019-01-24T01:00:20.727Z,65.57
2019-01-24T01:02:50.537Z,70.27
2019-01-24T01:05:20.867Z,76.70
2019-01-24T01:07:50.871Z,67.30
2019-01-24T01:10:20.842Z,67.90
2019-01-24T01:12:50.518Z,68.17
2019-01-24T01:15:20.986Z,69.93
2019-01-24T01:17:50.713Z,69.93
2019-01-24T01:20:22.500Z,65.30
2019-01-24T01:22:53.559Z,64.37
2019-01-24T01:25:24.196Z,59.17
2019-01-24T01:27:54.073Z,66.20
2019-01-24T01:30:25.039Z,68.47
2019-01-24T01:32:55.103Z,74.30
2019-01-24T01:35:26.096Z,61.20
2019-01-24T01:37:56.831Z,72.43
2019-01-24T01:40:26.483Z,66.43
2019-01-24T01:42:56.074Z,67.43
2019-01-24T01:45:25.973Z,59.53
2019-01-24T01:47:56.699Z,69.30
2019-01-24T01:50:26.666Z,63.53
2019-01-24T01:52:56.343Z,67.33
2019-01-24T01:55:27.027Z,72.63
2019-01-24T01:57:58.910Z,74.37
2019-01-24T02:00:28.695Z,72.30
2019-01-24T02:02:58.431Z,69.17
2019-01-24T02:05:28.055Z,71.23
2019-01-24T02:07:59.182Z,60.07
2019-01-24T02:10:28.907Z,70.93
2019-01-24T02:12:58.708Z,74.00
2019-01-24T02:15:28.470Z,71.57
2019-01-24T02:17:58.282Z,79.10
2019-01-24T02:20:29.735Z,69.03
2019-01-24T02:22:59.651Z,72.97
2019-01-24T02:25:30.622Z,72.63
2019-01-24T02:28:03.067Z,74.03
2019-01-24T02:30:33.139Z,80.93
2019-01-24T02:33:03.048Z,82.57
2019-01-24T02:35:32.716Z,73.10
2019-01-24T02:38:02.375Z,81.80
2019-01-24T02:40:34.091Z,73.23
2019-01-24T02:43:05.632Z,68.57
2019-01-24T02:45:36.626Z,84.60
2019-01-24T02:48:06.579Z,71.33
2019-01-24T02:50:36.455Z,90.47
2019-01-24T02:53:07.310Z,75.10
2019-01-24T02:55:37.188Z,73.27
2019-01-24T02:58:06.899Z,71.77
2019-01-24T03:00:36.700Z,67.80
2019-01-24T03:03:06.314Z,84.93
2019-01-24T03:05:36.141Z,78.60
2019-01-24T03:08:05.776Z,83.30
2019-01-24T03:10:35.515Z,74.53
2019-01-24T03:13:05.704Z,78.23
2019-01-24T03:15:36.538Z,76.23
2019-01-24T03:18:06.439Z,80.67
2019-01-24T03:20:37.981Z,72.10
2019-01-24T03:23:08.922Z,70.03
2019-01-24T03:25:38.761Z,71.53
2019-01-24T03:28:08.539Z,77.40
2019-01-24T03:30:39.152Z,78.60
2019-01-24T03:33:08.884Z,78.20
2019-01-24T03:35:40.291Z,72.77
2019-01-24T03:38:09.908Z,79.53
2019-01-24T03:40:39.691Z,78.03
2019-01-24T03:43:10.559Z,75.00
2019-01-24T03:45:41.778Z,80.77
2019-01-24T03:48:14.897Z,68.67
2019-01-24T03:50:46.479Z,76.87
2019-01-24T03:53:16.587Z,74.87
2019-01-24T03:55:47.248Z,74.77
2019-01-24T03:58:16.906Z,86.27
2019-01-24T04:00:49.349Z,82.27
2019-01-24T04:03:20.767Z,83.30
2019-01-24T04:05:50.635Z,78.50
2019-01-24T04:08:20.180Z,83.73
2019-01-24T04:10:49.795Z,87.83
2019-01-24T04:13:20.510Z,83.63
2019-01-24T04:15:50.334Z,87.33
2019-01-24T04:18:20.031Z,79.20
2019-01-24T04:20:52.144Z,80.90
2019-01-24T04:23:22.168Z,76.57
2019-01-24T04:25:52.951Z,71.40
2019-01-24T04:28:23.574Z,75.20
2019-01-24T04:30:56.255Z,81.50
2019-01-24T04:33:26.026Z,73.83
2019-01-24T04:35:55.755Z,79.03
2019-01-24T04:38:27.308Z,79.33
2019-01-24T04:40:56.945Z,82.30
2019-01-24T04:43:27.012Z,85.60
2019-01-24T04:45:56.683Z,78.57
2019-01-24T04:48:26.368Z,84.20
2019-01-24T04:50:56.179Z,83.87
2019-01-24T04:53:27.724Z,85.60
2019-01-24T04:55:57.795Z,89.43
2019-01-24T04:58:27.695Z,91.27
2019-01-24T05:00:58.379Z,85.43
2019-01-24T05:03:28.175Z,79.70
2019-01-24T05:05:58.608Z,89.87
2019-01-24T05:08:28.280Z,82.73
2019-01-24T05:11:00.315Z,82.33
2019-01-24T05:13:30.179Z,81.03
2019-01-24T05:15:59.867Z,85.57
2019-01-24T05:18:33.064Z,89.33
2019-01-24T05:21:02.835Z,78.53
2019-01-24T05:23:32.383Z,80.53
2019-01-24T05:26:02.571Z,78.40
2019-01-24T05:28:32.204Z,82.87
2019-01-24T05:31:04.125Z,85.03
2019-01-24T05:33:36.520Z,70.83
2019-01-24T05:36:06.255Z,78.70
2019-01-24T05:38:37.605Z,85.13
2019-01-24T05:41:07.730Z,89.40
2019-01-24T05:43:37.863Z,86.10
2019-01-24T05:46:10.729Z,77.37
2019-01-24T05:48:40.251Z,85.70
2019-01-24T05:51:13.890Z,80.57
2019-01-24T05:53:44.746Z,86.57
2019-01-24T05:56:14.511Z,83.07
2019-01-24T05:58:47.329Z,94.17
2019-01-24T06:01:19.231Z,92.03
2019-01-24T06:03:49.014Z,87.30
2019-01-24T06:06:18.586Z,103.25
2019-01-24T06:08:51.204Z,85.90
2019-01-24T06:11:20.938Z,92.80
2019-01-24T06:13:50.725Z,90.20
2019-01-24T06:16:20.328Z,97.20
2019-01-24T06:18:51.840Z,99.87
2019-01-24T06:21:21.498Z,78.30
2019-01-24T06:23:51.196Z,98.23
2019-01-24T06:26:20.763Z,93.73
2019-01-24T06:28:50.577Z,90.23
2019-01-24T06:31:20.381Z,93.23
2019-01-24T06:33:50.055Z,83.20
2019-01-24T06:36:19.756Z,99.93
2019-01-24T06:38:49.566Z,87.60
2019-01-24T06:41:22.356Z,86.53
2019-01-24T06:43:52.143Z,88.60
2019-01-24T06:46:21.874Z,95.80
2019-01-24T06:48:51.699Z,95.63
2019-01-24T06:51:21.508Z,94.63
2019-01-24T06:53:51.251Z,90.57
2019-01-24T06:56:21.031Z,105.00
2019-01-24T06:58:52.555Z,96.10
2019-01-24T07:01:23.755Z,93.60
2019-01-24T07:03:54.976Z,97.50
2019-01-24T07:06:24.707Z,89.73
2019-01-24T07:08:54.336Z,90.50
2019-01-24T07:11:24.201Z,110.83
2019-01-24T07:13:53.859Z,96.33
2019-01-24T07:16:23.482Z,97.13
2019-01-24T07:18:54.269Z,100.10
2019-01-24T07:21:24.055Z,100.03
2019-01-24T07:23:55.159Z,102.27
2019-01-24T07:26:24.828Z,95.97
2019-01-24T07:28:56.927Z,100.83
2019-01-24T07:31:27.731Z,103.50
2019-01-24T07:33:57.579Z,108.20
2019-01-24T07:36:27.287Z,96.67
2019-01-24T07:38:57.095Z,110.53
2019-01-24T07:41:27.804Z,94.67
2019-01-24T07:43:58.540Z,104.27
2019-01-24T07:46:30.035Z,87.90
2019-01-24T07:49:01.403Z,101.07
2019-01-24T07:51:31.033Z,99.73
2019-01-24T07:54:00.883Z,100.17
2019-01-24T07:56:35.957Z,104.97
2019-01-24T07:59:08.045Z,102.37
2019-01-24T08:01:38.905Z,108.67
2019-01-24T08:04:10.471Z,105.30
2019-01-24T08:06:40.067Z,105.43
2019-01-24T08:09:09.719Z,98.00
2019-01-24T08:11:39.347Z,94.93
2019-01-24T08:14:08.959Z,106.47
2019-01-24T08:16:38.647Z,97.23
2019-01-24T08:19:09.727Z,95.87
2019-01-24T08:21:39.476Z,93.13
2019-01-24T08:24:11.655Z,106.27
2019-01-24T08:26:42.964Z,99.47
2019-01-24T08:29:12.702Z,104.93
2019-01-24T08:31:43.364Z,103.67
2019-01-24T08:34:13.099Z,103.27
2019-01-24T08:36:43.839Z,103.33
2019-01-24T08:39:13.405Z,102.37
2019-01-24T08:41:44.899Z,107.13
2019-01-24T08:44:14.459Z,90.40
2019-01-24T08:46:45.272Z,106.40
2019-01-24T08:49:15.033Z,92.43
2019-01-24T08:51:45.811Z,83.10
2019-01-24T08:54:17.488Z,98.80
2019-01-24T08:56:47.252Z,102.37
2019-01-24T08:59:16.810Z,82.33
2019-01-24T09:01:47.404Z,76.33
2019-01-24T09:04:17.095Z,79.53
2019-01-24T09:06:46.783Z,87.77
2019-01-24T09:09:16.581Z,77.23
2019-01-24T09:11:47.289Z,69.03
2019-01-24T09:14:18.167Z,72.13
2019-01-24T09:16:48.519Z,71.23
2019-01-24T09:19:18.098Z,71.80
2019-01-24T09:21:48.937Z,65.57
2019-01-24T09:24:18.579Z,69.70
2019-01-24T09:26:48.379Z,78.17
2019-01-24T09:29:19.438Z,65.33
2019-01-24T09:31:49.475Z,66.20
2019-01-24T09:34:19.276Z,62.90
2019-01-24T09:36:51.016Z,66.83
2019-01-24T09:39:20.659Z,67.13
2019-01-24T09:41:52.339Z,60.47
2019-01-24T09:44:22.255Z,55.30
2019-01-24T09:46:52.367Z,51.17
2019-01-24T09:49:22.226Z,49.37
2019-01-24T09:51:53.470Z,53.37
2019-01-24T09:54:26.493Z,55.60
2019-01-24T09:56:56.123Z,52.90
2019-01-24T09:59:27.391Z,58.50
2019-01-24T10:01:59.863Z,54.27
2019-01-24T10:04:33.209Z,50.03
2019-01-24T10:07:03.327Z,43.97
2019-01-24T10:09:33.191Z,52.43
2019-01-24T10:12:04.187Z,44.63
2019-01-24T10:14:34.204Z,49.70
2019-01-24T10:17:03.896Z,52.77
2019-01-24T10:19:35.215Z,63.53
2019-01-24T10:22:05.060Z,46.93
2019-01-24T10:24:35.002Z,45.77
2019-01-24T10:27:04.764Z,47.37
2019-01-24T10:29:34.459Z,47.27
2019-01-24T10:32:04.197Z,52.57
2019-01-24T10:34:34.831Z,54.67
2019-01-24T10:37:05.546Z,53.00
2019-01-24T10:39:35.467Z,53.10
2019-01-24T10:42:05.523Z,47.63
2019-01-24T10:44:35.376Z,45.00
2019-01-24T10:47:05.831Z,49.73
2019-01-24T10:49:37.067Z,50.27
2019-01-24T10:52:08.483Z,45.80
2019-01-24T10:54:38.312Z,47.60
2019-01-24T10:57:08.219Z,46.63
2019-01-24T10:59:38.071Z,46.37
2019-01-24T11:02:09.167Z,45.03
2019-01-24T11:04:38.873Z,51.13
2019-01-24T11:07:08.611Z,54.40
2019-01-24T11:09:38.294Z,45.70
2019-01-24T11:12:10.301Z,44.73
2019-01-24T11:14:40.310Z,55.63
2019-01-24T11:17:14.428Z,46.63
2019-01-24T11:19:44.147Z,38.20
2019-01-24T11:22:13.929Z,44.70
2019-01-24T11:24:44.995Z,43.87
2019-01-24T11:27:15.905Z,30.87
2019-01-24T11:29:47.080Z,35.23
2019-01-24T11:32:16.752Z,41.77
2019-01-24T11:34:46.634Z,43.50
2019-01-24T11:37:17.941Z,49.37
2019-01-24T11:39:47.564Z,47.93
2019-01-24T11:42:17.401Z,46.70
2019-01-24T11:44:49.631Z,45.90
2019-01-24T11:47:19.306Z,50.80
2019-01-24T11:49:51.248Z,51.90
2019-01-24T11:52:21.079Z,42.57
2019-01-24T11:54:50.899Z,48.07
2019-01-24T11:57:23.395Z,63.20
2019-01-24T11:59:55.811Z,56.87
2019-01-24T12:02:25.587Z,61.83
2019-01-24T12:04:55.429Z,64.13
2019-01-24T12:07:25.459Z,66.17
2019-01-24T12:09:55.428Z,53.47
2019-01-24T12:12:25.069Z,55.20
2019-01-24T12:14:57.504Z,55.40
2019-01-24T12:17:27.298Z,60.37
2019-01-24T12:19:57.047Z,55.77
2019-01-24T12:22:26.605Z,46.73
2019-01-24T12:24:57.350Z,48.00
2019-01-24T12:27:30.235Z,47.83
2019-01-24T12:29:59.920Z,51.77
2019-01-24T12:32:30.800Z,50.37
2019-01-24T12:35:00.519Z,49.13
2019-01-24T12:37:30.341Z,51.10
2019-01-24T12:39:59.922Z,50.40
2019-01-24T12:42:29.628Z,45.50
2019-01-24T12:45:00.696Z,53.53
2019-01-24T12:47:30.589Z,51.30
2019-01-24T12:50:00.497Z,48.57
2019-01-24T12:52:31.295Z,56.90
2019-01-24T12:55:01.117Z,48.57
2019-01-24T12:57:32.051Z,45.37
2019-01-24T13:00:06.624Z,49.37
2019-01-24T13:02:36.425Z,47.27
2019-01-24T13:05:08.604Z,51.53
2019-01-24T13:07:38.827Z,42.90
2019-01-24T13:10:09.303Z,59.37
2019-01-24T13:12:40.516Z,44.03
2019-01-24T13:15:10.887Z,52.67
2019-01-24T13:17:40.779Z,47.23
2019-01-24T13:20:13.103Z,46.30
2019-01-24T13:22:42.799Z,45.23
2019-01-24T13:25:26.446Z,42.17
2019-01-24T13:27:56.211Z,45.87
2019-01-24T13:30:29.252Z,44.77
2019-01-24T13:33:01.785Z,42.87
2019-01-24T13:35:31.595Z,43.23
2019-01-24T13:38:01.478Z,44.07
2019-01-24T13:40:32.226Z,42.63
2019-01-24T13:43:02.744Z,40.53
2019-01-24T13:45:39.638Z,40.30
2019-01-24T13:48:10.170Z,46.40
2019-01-24T13:50:41.731Z,37.53
2019-01-24T13:53:12.878Z,45.80
2019-01-24T13:55:43.750Z,43.33
2019-01-24T13:58:17.076Z,42.23
2019-01-24T14:00:46.831Z,36.37
2019-01-24T14:03:42.042Z,45.03
2019-01-24T14:06:09.333Z,38.27
2019-01-24T14:08:40.412Z,36.90
2019-01-24T14:11:18.016Z,42.90
2019-01-24T14:13:44.223Z,38.00
2019-01-24T14:16:13.864Z,43.27
2019-01-24T14:18:43.527Z,41.33
2019-01-24T14:21:13.177Z,45.07
2019-01-24T14:23:42.916Z,39.97
2019-01-24T14:26:12.600Z,39.33
2019-01-24T14:28:42.195Z,47.20
2019-01-24T14:31:13.396Z,52.33
2019-01-24T14:33:43.255Z,43.97
2019-01-24T14:36:12.883Z,47.33
2019-01-24T14:38:42.702Z,53.90
2019-01-24T14:41:12.440Z,48.50
2019-01-24T14:43:42.138Z,49.73
2019-01-24T14:46:11.727Z,52.13
2019-01-24T14:48:41.372Z,49.77
2019-01-24T14:51:11.070Z,47.83
2019-01-24T14:53:41.814Z,53.97
2019-01-24T14:56:12.691Z,45.43
2019-01-24T14:58:42.639Z,54.53
2019-01-24T15:01:18.250Z,47.30
2019-01-24T15:03:48.088Z,48.40
2019-01-24T15:06:18.955Z,52.80
2019-01-24T15:08:51.292Z,53.70
2019-01-24T15:11:20.931Z,53.57
2019-01-24T15:13:50.624Z,50.13
2019-01-24T15:16:20.515Z,56.13
2019-01-24T15:18:50.459Z,53.87
2019-01-24T15:21:21.201Z,58.60
2019-01-24T15:23:50.828Z,63.87
2019-01-24T15:26:21.501Z,57.83
2019-01-24T15:28:51.387Z,65.73
2019-01-24T15:31:21.116Z,57.00
2019-01-24T15:33:51.201Z,62.37
2019-01-24T15:36:24.000Z,58.47
2019-01-24T15:38:53.615Z,72.77
2019-01-24T15:41:23.463Z,62.80
2019-01-24T15:43:53.255Z,71.87
2019-01-24T15:46:23.011Z,69.43
2019-01-24T15:48:52.717Z,70.97
2019-01-24T15:51:24.192Z,76.80
2019-01-24T15:53:53.923Z,72.97
2019-01-24T15:56:23.712Z,76.77
2019-01-24T15:58:53.775Z,76.97
2019-01-24T16:01:23.508Z,68.57
2019-01-24T16:03:55.035Z,71.93
2019-01-24T16:06:25.896Z,68.43
2019-01-24T16:08:55.591Z,74.80
2019-01-24T16:11:25.225Z,73.63
2019-01-24T16:14:00.996Z,76.73
2019-01-24T16:16:31.811Z,79.73
2019-01-24T16:19:02.560Z,80.53
2019-01-24T16:21:33.326Z,75.77
2019-01-24T16:24:04.559Z,78.03
2019-01-24T16:26:34.387Z,88.43
2019-01-24T16:29:04.224Z,83.30
2019-01-24T16:31:33.946Z,81.70
2019-01-24T16:34:05.225Z,92.13
2019-01-24T16:36:34.914Z,77.70
2019-01-24T16:39:08.024Z,84.53
2019-01-24T16:41:37.904Z,78.63
2019-01-24T16:44:08.528Z,86.37
2019-01-24T16:46:38.345Z,81.73
2019-01-24T16:49:08.130Z,81.33
2019-01-24T16:51:38.057Z,80.70
2019-01-24T16:54:11.014Z,85.00
2019-01-24T16:56:42.523Z,78.60
2019-01-24T16:59:13.811Z,85.53
2019-01-24T17:01:43.691Z,89.83
2019-01-24T17:04:14.126Z,89.57
2019-01-24T17:06:44.983Z,78.83
2019-01-24T17:09:16.066Z,89.00
2019-01-24T17:11:48.598Z,80.47
2019-01-24T17:14:22.297Z,83.87
2019-01-24T17:16:49.740Z,85.93
2019-01-24T17:19:19.607Z,95.00
2019-01-24T17:21:49.380Z,89.37
2019-01-24T17:24:19.053Z,85.70
2019-01-24T17:26:50.515Z,87.67
2019-01-24T17:29:20.359Z,82.13
2019-01-24T17:31:51.101Z,86.47
2019-01-24T17:34:20.944Z,85.50
2019-01-24T17:36:51.848Z,82.93
2019-01-24T17:39:20.890Z,93.73
2019-01-24T17:41:50.519Z,78.13
2019-01-24T17:44:20.220Z,82.57
2019-01-24T17:46:50.163Z,89.03
2019-01-24T17:49:19.785Z,97.40
2019-01-24T17:51:49.581Z,91.13
2019-01-24T17:54:19.255Z,83.07
2019-01-24T17:56:49.000Z,91.10
2019-01-24T17:59:18.591Z,89.23
2019-01-24T18:01:48.195Z,94.47
2019-01-24T18:04:21.713Z,94.33
2019-01-24T18:06:51.111Z,102.57
2019-01-24T18:09:20.749Z,88.53
2019-01-24T18:11:50.593Z,88.53
2019-01-24T18:14:20.370Z,95.10
2019-01-24T18:16:50.617Z,103.73
2019-01-24T18:19:20.379Z,89.10
2019-01-24T18:21:50.045Z,89.87
2019-01-24T18:24:19.859Z,100.63
2019-01-24T18:26:49.487Z,96.80
2019-01-24T18:29:19.085Z,90.40
2019-01-24T18:31:48.843Z,87.17
2019-01-24T18:34:21.683Z,91.50
2019-01-24T18:36:53.267Z,97.00
2019-01-24T18:39:23.119Z,89.87
2019-01-24T18:41:54.398Z,86.93
2019-01-24T18:44:25.759Z,87.33
2019-01-24T18:46:55.590Z,93.73
2019-01-24T18:49:25.441Z,86.03
2019-01-24T18:51:57.867Z,82.20
2019-01-24T18:54:28.989Z,94.03
2019-01-24T18:56:58.883Z,89.27
2019-01-24T18:59:29.814Z,87.23
2019-01-24T19:02:01.040Z,82.67
2019-01-24T19:04:30.711Z,84.67
2019-01-24T19:07:02.588Z,85.87
2019-01-24T19:09:34.170Z,80.90
2019-01-24T19:12:03.969Z,90.00
2019-01-24T19:14:33.717Z,85.13
2019-01-24T19:17:03.607Z,81.63
2019-01-24T19:19:33.267Z,81.23
2019-01-24T19:22:02.957Z,91.60
2019-01-24T19:24:34.129Z,80.33
2019-01-24T19:27:04.015Z,84.63
2019-01-24T19:29:35.503Z,89.13
2019-01-24T19:32:08.622Z,83.87
2019-01-24T19:34:38.419Z,78.80
2019-01-24T19:37:08.175Z,86.70
2019-01-24T19:39:39.000Z,80.50
2019-01-24T19:42:11.916Z,75.37
2019-01-24T19:44:41.552Z,83.10
2019-01-24T19:47:11.451Z,81.17
2019-01-24T19:49:41.235Z,82.10
2019-01-24T19:52:13.549Z,82.50
2019-01-24T19:54:43.361Z,86.93
2019-01-24T19:57:12.976Z,87.30
2019-01-24T19:59:44.400Z,79.97
2019-01-24T20:02:15.961Z,77.13
2019-01-24T20:04:45.792Z,80.33
2019-01-24T20:07:15.501Z,73.80
2019-01-24T20:09:46.357Z,87.07
2019-01-24T20:12:17.482Z,82.23
2019-01-24T20:14:47.192Z,68.17
2019-01-24T20:17:17.043Z,74.77
2019-01-24T20:19:49.643Z,78.30
2019-01-24T20:22:21.676Z,86.20
2019-01-24T20:24:52.902Z,73.10
2019-01-24T20:27:23.723Z,76.40
2019-01-24T20:29:53.602Z,76.67
2019-01-24T20:32:23.202Z,90.33
2019-01-24T20:34:52.943Z,86.80
2019-01-24T20:37:24.123Z,82.57
2019-01-24T20:39:53.898Z,79.17
2019-01-24T20:42:25.533Z,81.97
2019-01-24T20:44:55.296Z,87.53
2019-01-24T20:47:25.189Z,77.17
2019-01-24T20:49:56.552Z,85.23
2019-01-24T20:52:26.267Z,76.00
2019-01-24T20:54:56.965Z,77.97
2019-01-24T20:57:26.653Z,72.57
2019-01-24T20:59:58.235Z,81.07
2019-01-24T21:02:27.843Z,78.93
2019-01-24T21:04:59.429Z,84.63
2019-01-24T21:07:31.451Z,95.77
2019-01-24T21:10:01.152Z,85.93
2019-01-24T21:12:32.335Z,92.03
2019-01-24T21:15:02.024Z,88.20
2019-01-24T21:17:32.678Z,86.63
2019-01-24T21:20:02.239Z,92.43
2019-01-24T21:22:31.823Z,96.80
2019-01-24T21:25:01.419Z,89.83
2019-01-24T21:27:31.879Z,89.03
2019-01-24T21:30:01.582Z,90.03
2019-01-24T21:32:31.887Z,88.30
2019-01-24T21:35:01.630Z,92.13
2019-01-24T21:37:32.780Z,90.77
2019-01-24T21:40:03.689Z,95.13
2019-01-24T21:42:33.686Z,105.70
2019-01-24T21:45:03.999Z,93.67
2019-01-24T21:47:33.747Z,97.07
2019-01-24T21:50:04.803Z,96.80
2019-01-24T21:52:35.685Z,101.20
2019-01-24T21:55:06.969Z,91.27
2019-01-24T21:57:39.279Z,87.87
2019-01-24T22:00:10.868Z,95.73
2019-01-24T22:02:41.323Z,96.63
2019-01-24T22:05:12.248Z,90.10
2019-01-24T22:07:41.880Z,98.00
2019-01-24T22:10:14.207Z,95.27
2019-01-24T22:12:43.808Z,100.17
2019-01-24T22:15:16.075Z,98.43
2019-01-24T22:17:47.236Z,87.57
2019-01-24T22:20:17.659Z,93.83
2019-01-24T22:22:47.948Z,94.73
2019-01-24T22:25:20.152Z,106.80
2019-01-24T22:27:49.719Z,85.03
2019-01-24T22:30:22.499Z,86.97
2019-01-24T22:32:52.243Z,93.57
2019-01-24T22:35:22.034Z,87.67
2019-01-24T22:37:51.694Z,97.07
2019-01-24T22:40:23.941Z,82.00
2019-01-24T22:42:55.330Z,100.90
2019-01-24T22:45:25.551Z,79.67
2019-01-24T22:47:55.391Z,89.60
2019-01-24T22:50:25.399Z,84.60
2019-01-24T22:52:55.447Z,87.53
2019-01-24T22:55:25.075Z,85.23
2019-01-24T22:57:54.793Z,97.73
2019-01-24T23:01:03.103Z,83.17
2019-01-24T23:03:36.475Z,81.80
2019-01-24T23:06:06.447Z,84.80
2019-01-24T23:08:36.063Z,83.30
2019-01-24T23:11:06.555Z,77.40
2019-01-24T23:13:36.219Z,77.33
2019-01-24T23:16:06.403Z,90.37
2019-01-24T23:18:37.649Z,85.37
2019-01-24T23:21:07.687Z,78.10
2019-01-24T23:23:39.115Z,85.20
2019-01-24T23:26:08.980Z,79.17
2019-01-24T23:28:40.454Z,81.67
2019-01-24T23:31:11.992Z,75.70
2019-01-24T23:33:41.596Z,81.17
2019-01-24T23:36:11.851Z,83.97
2019-01-24T23:38:41.698Z,77.77
2019-01-24T23:41:11.451Z,89.77
2019-01-24T23:43:41.211Z,81.37
2019-01-24T23:46:10.943Z,88.27
2019-01-24T23:48:40.644Z,81.57
2019-01-24T23:51:13.450Z,87.27
2019-01-24T23:53:43.174Z,77.90
2019-01-24T23:56:13.982Z,80.80
2019-01-24T23:58:43.875Z,75.53
